sensor_id;sensor_type;location;lat;lon;timestamp;pressure;altitude;pressure_sealevel;temperature;humidity
77023;BME280;65952;51.440;-2.054;2024-01-15T00:00:18;99835.84;;;6.39;50.89
77023;BME280;65952;51.440;-2.054;2024-01-15T00:02:43;99835.16;;;6.37;50.76
77023;BME280;65952;51.440;-2.054;2024-01-15T00:05:09;99832.47;;;6.37;50.89
77023;BME280;65952;51.440;-2.054;2024-01-15T00:07:35;99824.63;;;6.36;51.19
77023;BME280;65952;51.440;-2.054;2024-01-15T00:10:00;99829.13;;;6.35;51.29
77023;BME280;65952;51.440;-2.054;2024-01-15T00:12:26;99829.28;;;6.33;51.47
77023;BME280;65952;51.440;-2.054;2024-01-15T00:14:52;99828.13;;;6.36;51.54
77023;BME280;65952;51.440;-2.054;2024-01-15T00:17:17;99820.13;;;6.36;51.77
77023;BME280;65952;51.440;-2.054;2024-01-15T00:19:43;99816.81;;;6.34;51.90
77023;BME280;65952;51.440;-2.054;2024-01-15T00:22:08;99806.63;;;6.38;51.73
77023;BME280;65952;51.440;-2.054;2024-01-15T00:24:33;99808.81;;;6.34;51.60
77023;BME280;65952;51.440;-2.054;2024-01-15T00:26:59;99808.94;;;6.32;51.60
77023;BME280;65952;51.440;-2.054;2024-01-15T00:29:24;99803.06;;;6.29;51.67
77023;BME280;65952;51.440;-2.054;2024-01-15T00:31:50;99808.09;;;6.32;51.57
77023;BME280;65952;51.440;-2.054;2024-01-15T00:34:15;99798.59;;;6.29;51.66
77023;BME280;65952;51.440;-2.054;2024-01-15T00:36:40;99798.50;;;6.39;51.56
77023;BME280;65952;51.440;-2.054;2024-01-15T00:39:06;99791.34;;;6.40;51.35
77023;BME280;65952;51.440;-2.054;2024-01-15T00:41:31;99787.31;;;6.36;51.61
77023;BME280;65952;51.440;-2.054;2024-01-15T00:43:57;99787.97;;;6.38;51.41
77023;BME280;65952;51.440;-2.054;2024-01-15T00:46:22;99787.16;;;6.37;51.84
77023;BME280;65952;51.440;-2.054;2024-01-15T00:48:48;99784.69;;;6.44;51.75
77023;BME280;65952;51.440;-2.054;2024-01-15T00:51:13;99779.00;;;6.39;51.97
77023;BME280;65952;51.440;-2.054;2024-01-15T00:53:39;99781.81;;;6.37;51.86
77023;BME280;65952;51.440;-2.054;2024-01-15T00:56:04;99781.13;;;6.35;52.11
77023;BME280;65952;51.440;-2.054;2024-01-15T00:58:29;99783.50;;;6.38;52.20
77023;BME280;65952;51.440;-2.054;2024-01-15T01:00:55;99779.69;;;6.41;52.21
77023;BME280;65952;51.440;-2.054;2024-01-15T01:03:21;99774.03;;;6.44;51.90
77023;BME280;65952;51.440;-2.054;2024-01-15T01:05:50;99774.88;;;6.44;51.62
77023;BME280;65952;51.440;-2.054;2024-01-15T01:08:16;99785.56;;;6.44;52.03
77023;BME280;65952;51.440;-2.054;2024-01-15T01:10:41;99773.22;;;6.43;52.04
77023;BME280;65952;51.440;-2.054;2024-01-15T01:13:09;99776.84;;;6.42;52.50
77023;BME280;65952;51.440;-2.054;2024-01-15T01:15:35;99768.88;;;6.42;52.48
77023;BME280;65952;51.440;-2.054;2024-01-15T01:18:00;99770.38;;;6.45;52.54
77023;BME280;65952;51.440;-2.054;2024-01-15T01:20:25;99775.34;;;6.40;52.59
77023;BME280;65952;51.440;-2.054;2024-01-15T01:22:51;99779.69;;;6.41;52.71
77023;BME280;65952;51.440;-2.054;2024-01-15T01:25:17;99771.97;;;6.38;53.03
77023;BME280;65952;51.440;-2.054;2024-01-15T01:27:43;99774.81;;;6.36;53.48
77023;BME280;65952;51.440;-2.054;2024-01-15T01:30:08;99765.13;;;6.35;53.56
77023;BME280;65952;51.440;-2.054;2024-01-15T01:32:34;99763.53;;;6.42;53.22
77023;BME280;65952;51.440;-2.054;2024-01-15T01:34:59;99763.16;;;6.37;53.67
77023;BME280;65952;51.440;-2.054;2024-01-15T01:37:25;99763.84;;;6.39;53.30
77023;BME280;65952;51.440;-2.054;2024-01-15T01:39:50;99757.53;;;6.40;54.03
77023;BME280;65952;51.440;-2.054;2024-01-15T01:42:15;99753.31;;;6.38;53.97
77023;BME280;65952;51.440;-2.054;2024-01-15T01:44:41;99751.97;;;6.33;54.40
77023;BME280;65952;51.440;-2.054;2024-01-15T01:47:07;99745.47;;;6.36;54.37
77023;BME280;65952;51.440;-2.054;2024-01-15T01:49:33;99744.50;;;6.37;54.45
77023;BME280;65952;51.440;-2.054;2024-01-15T01:52:01;99753.31;;;6.38;54.63
77023;BME280;65952;51.440;-2.054;2024-01-15T01:54:29;99747.31;;;6.36;54.84
77023;BME280;65952;51.440;-2.054;2024-01-15T01:56:55;99749.47;;;6.32;54.92
77023;BME280;65952;51.440;-2.054;2024-01-15T01:59:22;99748.47;;;6.33;54.96
77023;BME280;65952;51.440;-2.054;2024-01-15T02:01:48;99746.63;;;6.33;55.12
77023;BME280;65952;51.440;-2.054;2024-01-15T02:04:15;99758.28;;;6.32;55.17
77023;BME280;65952;51.440;-2.054;2024-01-15T02:06:41;99750.44;;;6.31;55.09
77023;BME280;65952;51.440;-2.054;2024-01-15T02:09:07;99755.09;;;6.29;55.30
77023;BME280;65952;51.440;-2.054;2024-01-15T02:11:33;99758.75;;;6.28;55.51
77023;BME280;65952;51.440;-2.054;2024-01-15T02:13:59;99756.75;;;6.30;55.48
77023;BME280;65952;51.440;-2.054;2024-01-15T02:16:24;99756.75;;;6.30;55.63
77023;BME280;65952;51.440;-2.054;2024-01-15T02:18:50;99754.25;;;6.28;55.68
77023;BME280;65952;51.440;-2.054;2024-01-15T02:21:15;99760.41;;;6.29;56.01
77023;BME280;65952;51.440;-2.054;2024-01-15T02:23:41;99759.44;;;6.30;55.98
77023;BME280;65952;51.440;-2.054;2024-01-15T02:26:07;99750.75;;;6.28;55.97
77023;BME280;65952;51.440;-2.054;2024-01-15T02:28:33;99747.41;;;6.26;56.19
77023;BME280;65952;51.440;-2.054;2024-01-15T02:30:59;99754.03;;;6.22;56.35
77023;BME280;65952;51.440;-2.054;2024-01-15T02:33:24;99747.84;;;6.21;56.57
77023;BME280;65952;51.440;-2.054;2024-01-15T02:35:50;99754.34;;;6.18;56.30
77023;BME280;65952;51.440;-2.054;2024-01-15T02:38:16;99750.22;;;6.24;56.10
77023;BME280;65952;51.440;-2.054;2024-01-15T02:40:43;99743.06;;;6.25;55.72
77023;BME280;65952;51.440;-2.054;2024-01-15T02:43:09;99749.53;;;6.22;55.95
77023;BME280;65952;51.440;-2.054;2024-01-15T02:45:34;99748.56;;;6.23;55.71
77023;BME280;65952;51.440;-2.054;2024-01-15T02:48:00;99745.50;;;6.18;56.12
77023;BME280;65952;51.440;-2.054;2024-01-15T02:50:25;99747.97;;;6.11;56.22
77023;BME280;65952;51.440;-2.054;2024-01-15T02:52:51;99756.25;;;6.08;56.11
77023;BME280;65952;51.440;-2.054;2024-01-15T02:55:16;99757.22;;;6.07;56.14
77023;BME280;65952;51.440;-2.054;2024-01-15T02:57:42;99758.53;;;6.03;56.18
77023;BME280;65952;51.440;-2.054;2024-01-15T03:00:07;99755.03;;;6.03;56.25
77023;BME280;65952;51.440;-2.054;2024-01-15T03:02:37;99755.47;;;5.98;56.31
77023;BME280;65952;51.440;-2.054;2024-01-15T03:05:05;99750.88;;;6.00;56.26
77023;BME280;65952;51.440;-2.054;2024-01-15T03:07:31;99755.03;;;6.03;56.31
77023;BME280;65952;51.440;-2.054;2024-01-15T03:09:57;99742.59;;;5.93;56.50
77023;BME280;65952;51.440;-2.054;2024-01-15T03:12:22;99748.34;;;5.89;56.65
77023;BME280;65952;51.440;-2.054;2024-01-15T03:14:47;99748.53;;;5.87;56.54
77023;BME280;65952;51.440;-2.054;2024-01-15T03:17:13;99748.28;;;5.80;56.59
77023;BME280;65952;51.440;-2.054;2024-01-15T03:19:38;99754.66;;;5.69;56.83
77023;BME280;65952;51.440;-2.054;2024-01-15T03:22:03;99750.41;;;5.77;56.65
77023;BME280;65952;51.440;-2.054;2024-01-15T03:24:30;99757.28;;;5.79;56.77
77023;BME280;65952;51.440;-2.054;2024-01-15T03:26:56;99752.84;;;5.70;57.01
77023;BME280;65952;51.440;-2.054;2024-01-15T03:29:21;99752.78;;;5.80;56.80
77023;BME280;65952;51.440;-2.054;2024-01-15T03:31:47;99750.66;;;5.83;56.67
77023;BME280;65952;51.440;-2.054;2024-01-15T03:34:15;99746.31;;;5.82;56.61
77023;BME280;65952;51.440;-2.054;2024-01-15T03:36:41;99741.81;;;5.83;56.65
77023;BME280;65952;51.440;-2.054;2024-01-15T03:39:06;99738.03;;;5.85;56.60
77023;BME280;65952;51.440;-2.054;2024-01-15T03:41:32;99751.66;;;5.82;56.45
77023;BME280;65952;51.440;-2.054;2024-01-15T03:43:58;99739.69;;;5.86;56.50
77023;BME280;65952;51.440;-2.054;2024-01-15T03:46:24;99741.97;;;5.81;56.78
77023;BME280;65952;51.440;-2.054;2024-01-15T03:48:49;99737.09;;;5.77;56.94
77023;BME280;65952;51.440;-2.054;2024-01-15T03:51:17;99743.03;;;5.89;56.62
77023;BME280;65952;51.440;-2.054;2024-01-15T03:53:42;99746.38;;;5.91;56.52
77023;BME280;65952;51.440;-2.054;2024-01-15T03:56:08;99742.03;;;5.90;56.43
77023;BME280;65952;51.440;-2.054;2024-01-15T03:58:33;99741.75;;;5.93;56.46
77023;BME280;65952;51.440;-2.054;2024-01-15T04:00:58;99740.38;;;5.89;56.60
77023;BME280;65952;51.440;-2.054;2024-01-15T04:03:24;99739.75;;;5.95;56.50
77023;BME280;65952;51.440;-2.054;2024-01-15T04:05:49;99740.63;;;5.95;56.44
77023;BME280;65952;51.440;-2.054;2024-01-15T04:08:15;99740.63;;;5.95;56.42
77023;BME280;65952;51.440;-2.054;2024-01-15T04:10:40;99738.78;;;5.96;56.52
77023;BME280;65952;51.440;-2.054;2024-01-15T04:13:06;99742.13;;;5.98;56.32
77023;BME280;65952;51.440;-2.054;2024-01-15T04:15:31;99739.19;;;6.01;56.40
77023;BME280;65952;51.440;-2.054;2024-01-15T04:17:56;99736.81;;;5.98;56.55
77023;BME280;65952;51.440;-2.054;2024-01-15T04:20:22;99742.13;;;5.98;56.53
77023;BME280;65952;51.440;-2.054;2024-01-15T04:22:47;99737.09;;;5.95;56.60
77023;BME280;65952;51.440;-2.054;2024-01-15T04:25:13;99739.38;;;5.90;56.69
77023;BME280;65952;51.440;-2.054;2024-01-15T04:27:38;99744.72;;;5.90;56.44
77023;BME280;65952;51.440;-2.054;2024-01-15T04:30:04;99736.34;;;5.84;56.42
77023;BME280;65952;51.440;-2.054;2024-01-15T04:32:30;99732.47;;;5.79;56.39
77023;BME280;65952;51.440;-2.054;2024-01-15T04:34:55;99737.16;;;5.67;56.59
77023;BME280;65952;51.440;-2.054;2024-01-15T04:37:21;99736.00;;;5.51;56.92
77023;BME280;65952;51.440;-2.054;2024-01-15T04:39:46;99732.09;;;5.46;56.96
77023;BME280;65952;51.440;-2.054;2024-01-15T04:42:11;99735.13;;;5.33;57.19
77023;BME280;65952;51.440;-2.054;2024-01-15T04:44:37;99736.59;;;5.17;57.39
77023;BME280;65952;51.440;-2.054;2024-01-15T04:47:02;99725.56;;;5.12;57.51
77023;BME280;65952;51.440;-2.054;2024-01-15T04:49:28;99739.50;;;4.96;58.02
77023;BME280;65952;51.440;-2.054;2024-01-15T04:51:54;99737.25;;;4.92;58.11
77023;BME280;65952;51.440;-2.054;2024-01-15T04:54:20;99730.31;;;4.81;58.38
77023;BME280;65952;51.440;-2.054;2024-01-15T04:56:45;99728.78;;;4.78;58.55
77023;BME280;65952;51.440;-2.054;2024-01-15T04:59:11;99731.31;;;4.70;58.58
77023;BME280;65952;51.440;-2.054;2024-01-15T05:01:36;99734.69;;;4.62;59.06
77023;BME280;65952;51.440;-2.054;2024-01-15T05:04:02;99726.88;;;4.61;58.81
77023;BME280;65952;51.440;-2.054;2024-01-15T05:06:27;99735.44;;;4.54;59.10
77023;BME280;65952;51.440;-2.054;2024-01-15T05:08:53;99743.81;;;4.40;59.51
77023;BME280;65952;51.440;-2.054;2024-01-15T05:11:18;99731.09;;;4.34;59.66
77023;BME280;65952;51.440;-2.054;2024-01-15T05:13:44;99739.66;;;4.28;59.66
77023;BME280;65952;51.440;-2.054;2024-01-15T05:16:09;99745.25;;;4.25;59.70
77023;BME280;65952;51.440;-2.054;2024-01-15T05:18:34;99738.13;;;4.15;59.67
77023;BME280;65952;51.440;-2.054;2024-01-15T05:21:02;99747.63;;;4.08;59.75
77023;BME280;65952;51.440;-2.054;2024-01-15T05:23:28;99744.16;;;4.07;59.86
77023;BME280;65952;51.440;-2.054;2024-01-15T05:25:53;99739.94;;;4.05;59.79
77023;BME280;65952;51.440;-2.054;2024-01-15T05:28:19;99750.69;;;3.94;59.93
77023;BME280;65952;51.440;-2.054;2024-01-15T05:30:44;99752.13;;;3.98;59.98
77023;BME280;65952;51.440;-2.054;2024-01-15T05:33:10;99754.34;;;3.93;60.01
77023;BME280;65952;51.440;-2.054;2024-01-15T05:35:35;99756.59;;;3.87;60.08
77023;BME280;65952;51.440;-2.054;2024-01-15T05:38:01;99763.84;;;3.85;60.06
77023;BME280;65952;51.440;-2.054;2024-01-15T05:40:28;99763.13;;;3.83;60.02
77023;BME280;65952;51.440;-2.054;2024-01-15T05:42:53;99764.94;;;3.73;60.23
77023;BME280;65952;51.440;-2.054;2024-01-15T05:45:18;99768.00;;;3.68;60.05
77023;BME280;65952;51.440;-2.054;2024-01-15T05:47:44;99767.00;;;3.60;60.19
77023;BME280;65952;51.440;-2.054;2024-01-15T05:50:10;99775.78;;;3.50;60.23
77023;BME280;65952;51.440;-2.054;2024-01-15T05:52:35;99772.28;;;3.40;60.11
77023;BME280;65952;51.440;-2.054;2024-01-15T05:55:01;99765.09;;;3.31;60.25
77023;BME280;65952;51.440;-2.054;2024-01-15T05:57:26;99774.91;;;3.30;60.34
77023;BME280;65952;51.440;-2.054;2024-01-15T05:59:52;99775.56;;;3.22;60.22
77023;BME280;65952;51.440;-2.054;2024-01-15T06:02:17;99773.44;;;3.16;60.34
77023;BME280;65952;51.440;-2.054;2024-01-15T06:04:43;99775.38;;;3.14;60.37
77023;BME280;65952;51.440;-2.054;2024-01-15T06:07:08;99778.44;;;3.09;60.48
77023;BME280;65952;51.440;-2.054;2024-01-15T06:09:34;99781.22;;;3.08;60.60
77023;BME280;65952;51.440;-2.054;2024-01-15T06:11:59;99788.03;;;3.01;60.72
77023;BME280;65952;51.440;-2.054;2024-01-15T06:14:24;99785.63;;;2.98;60.76
77023;BME280;65952;51.440;-2.054;2024-01-15T06:16:50;99795.00;;;3.02;60.76
77023;BME280;65952;51.440;-2.054;2024-01-15T06:19:15;99792.53;;;3.10;60.87
77023;BME280;65952;51.440;-2.054;2024-01-15T06:21:42;99793.25;;;3.12;61.18
77023;BME280;65952;51.440;-2.054;2024-01-15T06:24:11;99787.69;;;3.15;60.96
77023;BME280;65952;51.440;-2.054;2024-01-15T06:26:38;99787.53;;;3.17;61.10
77023;BME280;65952;51.440;-2.054;2024-01-15T06:29:04;99789.59;;;3.13;61.01
77023;BME280;65952;51.440;-2.054;2024-01-15T06:31:29;99784.44;;;3.12;61.14
77023;BME280;65952;51.440;-2.054;2024-01-15T06:33:55;99772.03;;;3.12;61.05
77023;BME280;65952;51.440;-2.054;2024-01-15T06:36:21;99786.09;;;3.03;61.05
77023;BME280;65952;51.440;-2.054;2024-01-15T06:38:46;99786.50;;;2.98;60.82
77023;BME280;65952;51.440;-2.054;2024-01-15T06:41:12;99793.16;;;2.92;60.93
77023;BME280;65952;51.440;-2.054;2024-01-15T06:43:38;99786.69;;;2.85;60.98
77023;BME280;65952;51.440;-2.054;2024-01-15T06:46:03;99790.13;;;2.76;61.02
77023;BME280;65952;51.440;-2.054;2024-01-15T06:48:34;99786.75;;;2.74;61.08
77023;BME280;65952;51.440;-2.054;2024-01-15T06:51:01;99785.06;;;2.73;61.08
77023;BME280;65952;51.440;-2.054;2024-01-15T06:53:26;99781.47;;;2.74;61.20
77023;BME280;65952;51.440;-2.054;2024-01-15T06:55:51;99787.72;;;2.73;61.13
77023;BME280;65952;51.440;-2.054;2024-01-15T06:58:17;99779.66;;;2.74;61.24
77023;BME280;65952;51.440;-2.054;2024-01-15T07:00:42;99776.09;;;2.85;61.26
77023;BME280;65952;51.440;-2.054;2024-01-15T07:03:07;99773.31;;;2.87;61.13
77023;BME280;65952;51.440;-2.054;2024-01-15T07:05:33;99780.69;;;2.83;61.23
77023;BME280;65952;51.440;-2.054;2024-01-15T07:07:58;99779.53;;;2.76;61.17
77023;BME280;65952;51.440;-2.054;2024-01-15T07:10:24;99778.22;;;2.70;61.15
77023;BME280;65952;51.440;-2.054;2024-01-15T07:12:49;99781.75;;;2.71;60.94
77023;BME280;65952;51.440;-2.054;2024-01-15T07:15:15;99777.97;;;2.73;60.99
77023;BME280;65952;51.440;-2.054;2024-01-15T07:17:41;99776.81;;;2.66;60.94
77023;BME280;65952;51.440;-2.054;2024-01-15T07:20:07;99777.78;;;2.65;61.11
77023;BME280;65952;51.440;-2.054;2024-01-15T07:22:36;99770.69;;;2.66;61.06
77023;BME280;65952;51.440;-2.054;2024-01-15T07:25:01;99784.13;;;2.74;61.09
77023;BME280;65952;51.440;-2.054;2024-01-15T07:27:27;99786.75;;;2.74;61.10
77023;BME280;65952;51.440;-2.054;2024-01-15T07:29:52;99798.59;;;2.70;61.20
77023;BME280;65952;51.440;-2.054;2024-01-15T07:32:18;99792.78;;;2.76;61.33
77023;BME280;65952;51.440;-2.054;2024-01-15T07:34:43;99789.78;;;2.90;60.77
77023;BME280;65952;51.440;-2.054;2024-01-15T07:37:09;99782.63;;;2.81;61.04
77023;BME280;65952;51.440;-2.054;2024-01-15T07:39:34;99782.09;;;2.87;60.78
77023;BME280;65952;51.440;-2.054;2024-01-15T07:42:00;99792.25;;;2.82;60.92
77023;BME280;65952;51.440;-2.054;2024-01-15T07:44:25;99795.59;;;2.84;60.78
77023;BME280;65952;51.440;-2.054;2024-01-15T07:46:51;99800.66;;;2.87;60.68
77023;BME280;65952;51.440;-2.054;2024-01-15T07:49:16;99797.28;;;2.85;60.63
77023;BME280;65952;51.440;-2.054;2024-01-15T07:51:42;99791.16;;;2.85;60.54
77023;BME280;65952;51.440;-2.054;2024-01-15T07:54:09;99793.09;;;2.83;60.57
77023;BME280;65952;51.440;-2.054;2024-01-15T07:56:34;99794.78;;;2.84;60.61
77023;BME280;65952;51.440;-2.054;2024-01-15T07:58:59;99799.25;;;2.83;60.39
77023;BME280;65952;51.440;-2.054;2024-01-15T08:01:25;99804.81;;;2.80;60.37
77023;BME280;65952;51.440;-2.054;2024-01-15T08:03:50;99808.25;;;2.71;60.77
77023;BME280;65952;51.440;-2.054;2024-01-15T08:06:17;99815.34;;;2.70;60.75
77023;BME280;65952;51.440;-2.054;2024-01-15T08:08:48;99811.28;;;2.66;60.73
77023;BME280;65952;51.440;-2.054;2024-01-15T08:11:21;99815.75;;;2.66;60.77
77023;BME280;65952;51.440;-2.054;2024-01-15T08:13:46;99827.03;;;2.68;60.48
77023;BME280;65952;51.440;-2.054;2024-01-15T08:16:12;99829.00;;;2.66;60.58
77023;BME280;65952;51.440;-2.054;2024-01-15T08:18:37;99826.06;;;2.69;60.59
77023;BME280;65952;51.440;-2.054;2024-01-15T08:21:03;99830.09;;;2.63;60.76
77023;BME280;65952;51.440;-2.054;2024-01-15T08:23:28;99836.09;;;2.65;60.68
77023;BME280;65952;51.440;-2.054;2024-01-15T08:25:56;99835.44;;;2.73;60.64
77023;BME280;65952;51.440;-2.054;2024-01-15T08:28:21;99843.16;;;2.76;60.50
77023;BME280;65952;51.440;-2.054;2024-01-15T08:30:47;99850.22;;;2.87;60.32
77023;BME280;65952;51.440;-2.054;2024-01-15T08:33:12;99850.53;;;2.93;59.85
77023;BME280;65952;51.440;-2.054;2024-01-15T08:35:38;99852.66;;;3.00;59.92
77023;BME280;65952;51.440;-2.054;2024-01-15T08:38:03;99852.81;;;3.08;59.60
77023;BME280;65952;51.440;-2.054;2024-01-15T08:40:29;99857.59;;;3.14;59.68
77023;BME280;65952;51.440;-2.054;2024-01-15T08:42:54;99852.09;;;3.27;59.62
77023;BME280;65952;51.440;-2.054;2024-01-15T08:45:19;99854.97;;;3.45;59.30
77023;BME280;65952;51.440;-2.054;2024-01-15T08:47:45;99849.28;;;3.60;58.58
77023;BME280;65952;51.440;-2.054;2024-01-15T08:50:10;99852.66;;;3.62;58.21
77023;BME280;65952;51.440;-2.054;2024-01-15T08:52:36;99865.78;;;3.63;58.06
77023;BME280;65952;51.440;-2.054;2024-01-15T08:55:02;99864.69;;;3.66;57.90
77023;BME280;65952;51.440;-2.054;2024-01-15T08:57:29;99864.69;;;3.66;57.58
77023;BME280;65952;51.440;-2.054;2024-01-15T08:59:55;99857.16;;;3.71;57.47
77023;BME280;65952;51.440;-2.054;2024-01-15T09:02:20;99853.38;;;3.73;57.61
77023;BME280;65952;51.440;-2.054;2024-01-15T09:04:46;99862.53;;;3.90;57.14
77023;BME280;65952;51.440;-2.054;2024-01-15T09:07:11;99865.50;;;4.07;56.54
77023;BME280;65952;51.440;-2.054;2024-01-15T09:09:36;99870.69;;;4.18;56.08
77023;BME280;65952;51.440;-2.054;2024-01-15T09:12:02;99874.47;;;4.26;55.61
77023;BME280;65952;51.440;-2.054;2024-01-15T09:14:27;99873.22;;;4.39;55.37
77023;BME280;65952;51.440;-2.054;2024-01-15T09:16:54;99880.38;;;4.59;54.98
77023;BME280;65952;51.440;-2.054;2024-01-15T09:19:19;99887.91;;;4.93;54.08
77023;BME280;65952;51.440;-2.054;2024-01-15T09:21:45;99894.50;;;5.46;53.80
77023;BME280;65952;51.440;-2.054;2024-01-15T09:24:10;99882.03;;;6.84;51.79
77023;BME280;65952;51.440;-2.054;2024-01-15T09:26:36;99885.69;;;8.48;48.61
77023;BME280;65952;51.440;-2.054;2024-01-15T09:29:05;99879.16;;;9.89;44.73
77023;BME280;65952;51.440;-2.054;2024-01-15T09:31:31;99877.97;;;10.78;41.21
77023;BME280;65952;51.440;-2.054;2024-01-15T09:33:57;99881.56;;;10.70;40.10
77023;BME280;65952;51.440;-2.054;2024-01-15T09:36:24;99877.47;;;9.96;40.57
77023;BME280;65952;51.440;-2.054;2024-01-15T09:38:50;99883.38;;;9.19;42.14
77023;BME280;65952;51.440;-2.054;2024-01-15T09:41:16;99897.44;;;8.71;43.51
77023;BME280;65952;51.440;-2.054;2024-01-15T09:43:42;99901.38;;;8.34;43.88
77023;BME280;65952;51.440;-2.054;2024-01-15T09:46:07;99898.84;;;8.33;44.86
77023;BME280;65952;51.440;-2.054;2024-01-15T09:48:33;99897.47;;;8.96;43.95
77023;BME280;65952;51.440;-2.054;2024-01-15T09:51:01;99888.69;;;9.91;41.45
77023;BME280;65952;51.440;-2.054;2024-01-15T09:53:26;99891.50;;;11.08;40.00
77023;BME280;65952;51.440;-2.054;2024-01-15T09:55:52;99905.22;;;11.96;37.42
77023;BME280;65952;51.440;-2.054;2024-01-15T09:58:18;99900.53;;;12.56;35.89
77023;BME280;65952;51.440;-2.054;2024-01-15T10:00:44;99905.53;;;13.03;36.02
77023;BME280;65952;51.440;-2.054;2024-01-15T10:03:10;99897.09;;;13.69;34.62
77023;BME280;65952;51.440;-2.054;2024-01-15T10:05:37;99894.38;;;13.97;33.53
77023;BME280;65952;51.440;-2.054;2024-01-15T10:08:04;99892.00;;;14.36;33.01
77023;BME280;65952;51.440;-2.054;2024-01-15T10:10:29;99896.50;;;14.84;32.50
77023;BME280;65952;51.440;-2.054;2024-01-15T10:12:58;99886.72;;;14.83;31.88
77023;BME280;65952;51.440;-2.054;2024-01-15T10:15:24;99892.97;;;15.04;31.84
77023;BME280;65952;51.440;-2.054;2024-01-15T10:17:51;99895.88;;;15.22;32.00
77023;BME280;65952;51.440;-2.054;2024-01-15T10:20:19;99898.16;;;15.39;30.88
77023;BME280;65952;51.440;-2.054;2024-01-15T10:22:47;99902.09;;;15.56;31.25
77023;BME280;65952;51.440;-2.054;2024-01-15T10:25:13;99901.28;;;15.42;31.39
77023;BME280;65952;51.440;-2.054;2024-01-15T10:27:40;99908.97;;;15.25;31.59
77023;BME280;65952;51.440;-2.054;2024-01-15T10:30:15;99907.84;;;14.53;32.79
77023;BME280;65952;51.440;-2.054;2024-01-15T10:32:41;99908.81;;;13.90;33.94
77023;BME280;65952;51.440;-2.054;2024-01-15T10:35:22;99917.63;;;13.63;34.14
77023;BME280;65952;51.440;-2.054;2024-01-15T10:37:47;99920.63;;;13.82;34.59
77023;BME280;65952;51.440;-2.054;2024-01-15T10:40:13;99928.47;;;13.20;34.88
77023;BME280;65952;51.440;-2.054;2024-01-15T10:42:43;99926.69;;;12.84;35.48
77023;BME280;65952;51.440;-2.054;2024-01-15T10:45:17;99926.66;;;12.41;36.77
77023;BME280;65952;51.440;-2.054;2024-01-15T10:47:43;99920.97;;;12.50;36.25
77023;BME280;65952;51.440;-2.054;2024-01-15T10:50:10;99922.34;;;12.83;35.52
77023;BME280;65952;51.440;-2.054;2024-01-15T10:52:39;99927.72;;;13.05;35.27
77023;BME280;65952;51.440;-2.054;2024-01-15T10:55:07;99926.91;;;13.32;34.76
77023;BME280;65952;51.440;-2.054;2024-01-15T10:57:34;99926.84;;;12.76;35.26
77023;BME280;65952;51.440;-2.054;2024-01-15T11:00:00;99925.41;;;12.22;35.40
77023;BME280;65952;51.440;-2.054;2024-01-15T11:02:29;99924.59;;;11.91;36.22
77023;BME280;65952;51.440;-2.054;2024-01-15T11:04:54;99917.88;;;11.87;36.02
77023;BME280;65952;51.440;-2.054;2024-01-15T11:07:23;99930.56;;;10.72;37.11
77023;BME280;65952;51.440;-2.054;2024-01-15T11:09:50;99928.34;;;10.76;37.45
77023;BME280;65952;51.440;-2.054;2024-01-15T11:12:16;99926.91;;;10.88;37.30
77023;BME280;65952;51.440;-2.054;2024-01-15T11:14:47;99934.53;;;10.13;38.93
77023;BME280;65952;51.440;-2.054;2024-01-15T11:17:13;99950.09;;;9.70;39.67
77023;BME280;65952;51.440;-2.054;2024-01-15T11:19:46;99935.78;;;9.30;40.36
77023;BME280;65952;51.440;-2.054;2024-01-15T11:25:23;99945.78;;;8.19;42.53
77023;BME280;65952;51.440;-2.054;2024-01-15T11:27:52;99946.81;;;8.18;43.00
77023;BME280;65952;51.440;-2.054;2024-01-15T11:30:18;99952.13;;;7.48;44.57
77023;BME280;65952;51.440;-2.054;2024-01-15T11:32:47;99937.88;;;7.40;44.69
77023;BME280;65952;51.440;-2.054;2024-01-15T11:35:15;99942.03;;;7.16;45.28
77023;BME280;65952;51.440;-2.054;2024-01-15T11:40:42;99959.66;;;6.73;44.31
77023;BME280;65952;51.440;-2.054;2024-01-15T11:43:11;99956.53;;;6.77;43.25
77023;BME280;65952;51.440;-2.054;2024-01-15T11:45:39;99961.97;;;6.86;42.70
77023;BME280;65952;51.440;-2.054;2024-01-15T11:50:32;99964.63;;;6.22;43.43
77023;BME280;65952;51.440;-2.054;2024-01-15T11:53:03;99955.34;;;6.26;43.13
77023;BME280;65952;51.440;-2.054;2024-01-15T11:55:36;99955.75;;;5.83;42.74
77023;BME280;65952;51.440;-2.054;2024-01-15T11:58:08;99948.28;;;6.07;43.51
77023;BME280;65952;51.440;-2.054;2024-01-15T12:00:34;99956.16;;;5.89;43.58
77023;BME280;65952;51.440;-2.054;2024-01-15T12:02:59;99967.84;;;6.25;42.93
77023;BME280;65952;51.440;-2.054;2024-01-15T12:05:27;99964.81;;;6.10;43.03
77023;BME280;65952;51.440;-2.054;2024-01-15T12:07:52;99972.69;;;6.02;42.97
77023;BME280;65952;51.440;-2.054;2024-01-15T12:10:19;99977.41;;;6.18;42.72
77023;BME280;65952;51.440;-2.054;2024-01-15T12:13:09;99971.44;;;6.34;42.88
77023;BME280;65952;51.440;-2.054;2024-01-15T12:15:35;99969.34;;;6.00;41.75
77023;BME280;65952;51.440;-2.054;2024-01-15T12:18:02;99966.94;;;5.49;42.25
77023;BME280;65952;51.440;-2.054;2024-01-15T12:20:31;99975.22;;;5.56;40.90
77023;BME280;65952;51.440;-2.054;2024-01-15T12:22:57;99980.97;;;5.51;40.60
77023;BME280;65952;51.440;-2.054;2024-01-15T12:25:24;99967.94;;;5.86;39.80
77023;BME280;65952;51.440;-2.054;2024-01-15T12:27:50;99973.94;;;5.60;39.97
77023;BME280;65952;51.440;-2.054;2024-01-15T12:30:16;99973.81;;;5.52;40.19
77023;BME280;65952;51.440;-2.054;2024-01-15T12:32:41;99967.25;;;5.94;40.17
77023;BME280;65952;51.440;-2.054;2024-01-15T12:35:08;99969.19;;;5.54;41.08
77023;BME280;65952;51.440;-2.054;2024-01-15T12:37:37;99973.78;;;5.62;41.14
77023;BME280;65952;51.440;-2.054;2024-01-15T12:40:07;99975.38;;;5.35;40.63
77023;BME280;65952;51.440;-2.054;2024-01-15T12:42:35;99977.75;;;5.48;40.48
77023;BME280;65952;51.440;-2.054;2024-01-15T12:45:00;99984.00;;;5.76;41.00
77023;BME280;65952;51.440;-2.054;2024-01-15T12:47:26;99976.75;;;5.59;40.73
77023;BME280;65952;51.440;-2.054;2024-01-15T12:49:52;99962.09;;;5.82;40.92
77023;BME280;65952;51.440;-2.054;2024-01-15T12:52:21;99974.19;;;5.67;40.10
77023;BME280;65952;51.440;-2.054;2024-01-15T12:54:48;99980.69;;;6.02;39.79
77023;BME280;65952;51.440;-2.054;2024-01-15T12:57:13;99973.41;;;5.94;39.46
77023;BME280;65952;51.440;-2.054;2024-01-15T12:59:39;99985.34;;;5.90;38.98
77023;BME280;65952;51.440;-2.054;2024-01-15T13:02:04;99977.28;;;6.10;39.04